sensor_id;sensor_type;location;lat;lon;timestamp;pressure;altitude;pressure_sealevel;temperature;humidity
16255;BME280;8235;52.198;9.904;2022-09-12T00:01:47;101055.53;;;13.06;85.20
16255;BME280;8235;52.198;9.904;2022-09-12T00:04:13;101056.41;;;13.07;85.32
16255;BME280;8235;52.198;9.904;2022-09-12T00:06:41;101054.69;;;13.06;85.76
16255;BME280;8235;52.198;9.904;2022-09-12T00:09:09;101050.41;;;13.03;85.64
16255;BME280;8235;52.198;9.904;2022-09-12T00:11:37;101049.63;;;13.01;86.18
16255;BME280;8235;52.198;9.904;2022-09-12T00:14:05;101051.47;;;13.01;86.21
16255;BME280;8235;52.198;9.904;2022-09-12T00:16:34;101055.19;;;12.98;85.92
16255;BME280;8235;52.198;9.904;2022-09-12T00:19:03;101042.03;;;12.95;86.08
16255;BME280;8235;52.198;9.904;2022-09-12T00:21:32;101048.31;;;12.94;86.29
16255;BME280;8235;52.198;9.904;2022-09-12T00:23:59;101052.06;;;12.92;86.06
16255;BME280;8235;52.198;9.904;2022-09-12T00:26:26;101046.19;;;12.86;85.80
16255;BME280;8235;52.198;9.904;2022-09-12T00:28:53;101042.94;;;12.81;85.85
16255;BME280;8235;52.198;9.904;2022-09-12T00:31:21;101045.06;;;12.76;85.71
16255;BME280;8235;52.198;9.904;2022-09-12T00:33:51;101037.38;;;12.72;85.63
16255;BME280;8235;52.198;9.904;2022-09-12T00:36:19;101036.81;;;12.67;85.80
16255;BME280;8235;52.198;9.904;2022-09-12T00:38:47;101049.41;;;12.65;86.08
16255;BME280;8235;52.198;9.904;2022-09-12T00:41:17;101050.56;;;12.61;86.32
16255;BME280;8235;52.198;9.904;2022-09-12T00:43:45;101038.25;;;12.58;86.44
16255;BME280;8235;52.198;9.904;2022-09-12T00:46:18;101044.66;;;12.56;86.65
16255;BME280;8235;52.198;9.904;2022-09-12T00:48:53;101040.25;;;12.55;86.70
16255;BME280;8235;52.198;9.904;2022-09-12T00:51:20;101043.16;;;12.51;87.05
16255;BME280;8235;52.198;9.904;2022-09-12T00:53:49;101044.13;;;12.50;87.54
16255;BME280;8235;52.198;9.904;2022-09-12T00:56:19;101039.72;;;12.49;87.66
16255;BME280;8235;52.198;9.904;2022-09-12T00:58:50;101036.28;;;12.47;87.48
16255;BME280;8235;52.198;9.904;2022-09-12T01:01:18;101032.09;;;12.43;87.77
16255;BME280;8235;52.198;9.904;2022-09-12T01:03:44;101023.31;;;12.41;87.59
16255;BME280;8235;52.198;9.904;2022-09-12T01:06:15;101030.56;;;12.39;87.94
16255;BME280;8235;52.198;9.904;2022-09-12T01:08:45;101025.44;;;12.36;88.35
16255;BME280;8235;52.198;9.904;2022-09-12T01:11:13;101025.66;;;12.33;88.06
16255;BME280;8235;52.198;9.904;2022-09-12T01:13:42;101026.81;;;12.29;88.17
16255;BME280;8235;52.198;9.904;2022-09-12T01:16:09;101018.88;;;12.28;88.19
16255;BME280;8235;52.198;9.904;2022-09-12T01:18:47;101026.91;;;12.28;88.44
16255;BME280;8235;52.198;9.904;2022-09-12T01:21:30;101010.88;;;12.28;88.58
16255;BME280;8235;52.198;9.904;2022-09-12T01:24:24;101015.34;;;12.27;88.63
16255;BME280;8235;52.198;9.904;2022-09-12T01:30:04;101017.25;;;12.25;89.06
16255;BME280;8235;52.198;9.904;2022-09-12T01:32:42;101019.94;;;12.25;89.44
16255;BME280;8235;52.198;9.904;2022-09-12T01:35:19;101019.94;;;12.25;89.20
16255;BME280;8235;52.198;9.904;2022-09-12T01:37:54;101012.97;;;12.23;89.31
16255;BME280;8235;52.198;9.904;2022-09-12T01:40:31;101012.97;;;12.23;89.08
16255;BME280;8235;52.198;9.904;2022-09-12T01:43:04;101007.94;;;12.18;89.19
16255;BME280;8235;52.198;9.904;2022-09-12T01:45:39;101008.16;;;12.15;89.09
16255;BME280;8235;52.198;9.904;2022-09-12T01:48:15;101006.44;;;12.14;89.08
16255;BME280;8235;52.198;9.904;2022-09-12T01:50:50;100996.78;;;12.11;89.21
16255;BME280;8235;52.198;9.904;2022-09-12T01:53:21;100994.31;;;12.08;89.18
16255;BME280;8235;52.198;9.904;2022-09-12T01:55:53;100998.03;;;12.06;89.00
16255;BME280;8235;52.198;9.904;2022-09-12T01:58:25;100999.09;;;12.03;88.86
16255;BME280;8235;52.198;9.904;2022-09-12T02:00:57;100998.31;;;12.01;89.02
16255;BME280;8235;52.198;9.904;2022-09-12T02:03:31;100992.97;;;12.01;89.23
16255;BME280;8235;52.198;9.904;2022-09-12T02:06:02;100991.41;;;11.99;89.13
16255;BME280;8235;52.198;9.904;2022-09-12T02:08:32;100996.81;;;11.97;88.73
16255;BME280;8235;52.198;9.904;2022-09-12T02:11:05;100998.72;;;11.95;88.76
16255;BME280;8235;52.198;9.904;2022-09-12T02:13:35;100988.25;;;11.92;88.64
16255;BME280;8235;52.198;9.904;2022-09-12T02:16:07;100985.66;;;11.91;88.63
16255;BME280;8235;52.198;9.904;2022-09-12T02:18:38;100982.25;;;11.89;88.54
16255;BME280;8235;52.198;9.904;2022-09-12T02:21:06;100982.44;;;11.86;88.11
16255;BME280;8235;52.198;9.904;2022-09-12T02:23:37;100990.75;;;11.81;87.94
16255;BME280;8235;52.198;9.904;2022-09-12T02:26:09;100984.84;;;11.76;87.81
16255;BME280;8235;52.198;9.904;2022-09-12T02:28:40;100986.81;;;11.72;87.95
16255;BME280;8235;52.198;9.904;2022-09-12T02:31:12;100991.38;;;11.70;88.40
16255;BME280;8235;52.198;9.904;2022-09-12T02:33:47;100986.97;;;11.69;88.29
16255;BME280;8235;52.198;9.904;2022-09-12T02:36:23;100993.28;;;11.68;88.53
16255;BME280;8235;52.198;9.904;2022-09-12T02:38:52;100981.84;;;11.66;88.86
16255;BME280;8235;52.198;9.904;2022-09-12T02:41:20;100982.78;;;11.65;88.85
16255;BME280;8235;52.198;9.904;2022-09-12T02:43:48;100987.16;;;11.66;88.98
16255;BME280;8235;52.198;9.904;2022-09-12T02:46:17;100973.09;;;11.64;88.93
16255;BME280;8235;52.198;9.904;2022-09-12T02:48:47;100980.34;;;11.62;88.86
16255;BME280;8235;52.198;9.904;2022-09-12T02:51:13;100973.28;;;11.61;88.94
16255;BME280;8235;52.198;9.904;2022-09-12T02:53:40;100979.56;;;11.60;89.14
16255;BME280;8235;52.198;9.904;2022-09-12T02:56:10;100973.38;;;11.60;89.07
16255;BME280;8235;52.198;9.904;2022-09-12T02:58:39;100979.66;;;11.59;89.16
16255;BME280;8235;52.198;9.904;2022-09-12T03:01:11;100972.63;;;11.58;89.17
16255;BME280;8235;52.198;9.904;2022-09-12T03:03:57;100976.31;;;11.55;89.19
16255;BME280;8235;52.198;9.904;2022-09-12T03:06:32;100966.59;;;11.54;89.23
16255;BME280;8235;52.198;9.904;2022-09-12T03:09:07;100968.50;;;11.52;89.27
16255;BME280;8235;52.198;9.904;2022-09-12T03:11:49;100962.41;;;11.50;89.40
16255;BME280;8235;52.198;9.904;2022-09-12T03:14:29;100958.13;;;11.47;89.15
16255;BME280;8235;52.198;9.904;2022-09-12T03:17:06;100965.47;;;11.44;89.03
16255;BME280;8235;52.198;9.904;2022-09-12T03:19:44;100959.47;;;11.40;88.89
16255;BME280;8235;52.198;9.904;2022-09-12T03:22:17;100959.75;;;11.36;89.09
16255;BME280;8235;52.198;9.904;2022-09-12T03:24:50;100955.34;;;11.35;89.11
16255;BME280;8235;52.198;9.904;2022-09-12T03:27:20;100958.22;;;11.32;89.31
16255;BME280;8235;52.198;9.904;2022-09-12T03:29:51;100960.88;;;11.32;89.33
16255;BME280;8235;52.198;9.904;2022-09-12T03:32:18;100960.09;;;11.30;89.56
16255;BME280;8235;52.198;9.904;2022-09-12T03:34:46;100958.41;;;11.29;89.50
16255;BME280;8235;52.198;9.904;2022-09-12T03:37:13;100956.59;;;11.29;89.49
16255;BME280;8235;52.198;9.904;2022-09-12T03:39:39;100963.72;;;11.29;89.60
16255;BME280;8235;52.198;9.904;2022-09-12T03:42:06;100961.19;;;11.27;89.69
16255;BME280;8235;52.198;9.904;2022-09-12T03:44:32;100967.47;;;11.26;89.55
16255;BME280;8235;52.198;9.904;2022-09-12T03:46:58;100966.59;;;11.26;89.62
16255;BME280;8235;52.198;9.904;2022-09-12T03:49:25;100967.56;;;11.25;89.52
16255;BME280;8235;52.198;9.904;2022-09-12T03:51:53;100969.47;;;11.23;89.61
16255;BME280;8235;52.198;9.904;2022-09-12T03:54:19;100970.50;;;11.20;89.36
16255;BME280;8235;52.198;9.904;2022-09-12T03:56:46;100970.59;;;11.19;89.41
16255;BME280;8235;52.198;9.904;2022-09-12T03:59:12;100966.28;;;11.16;89.45
16255;BME280;8235;52.198;9.904;2022-09-12T04:01:38;100966.47;;;11.13;89.37
16255;BME280;8235;52.198;9.904;2022-09-12T04:04:06;100971.16;;;11.09;89.20
16255;BME280;8235;52.198;9.904;2022-09-12T04:06:32;100965.25;;;11.04;89.00
16255;BME280;8235;52.198;9.904;2022-09-12T04:09:00;100964.56;;;11.01;88.77
16255;BME280;8235;52.198;9.904;2022-09-12T04:11:26;100968.44;;;10.95;88.54
16255;BME280;8235;52.198;9.904;2022-09-12T04:13:53;100964.44;;;10.88;88.33
16255;BME280;8235;52.198;9.904;2022-09-12T04:16:19;100973.56;;;10.84;88.39
16255;BME280;8235;52.198;9.904;2022-09-12T04:18:46;100973.75;;;10.81;88.57
16255;BME280;8235;52.198;9.904;2022-09-12T04:21:14;100970.22;;;10.81;88.80
16255;BME280;8235;52.198;9.904;2022-09-12T04:23:42;100972.09;;;10.78;88.78
16255;BME280;8235;52.198;9.904;2022-09-12T04:26:10;100975.63;;;10.79;89.00
16255;BME280;8235;52.198;9.904;2022-09-12T04:28:38;100966.78;;;10.78;89.18
16255;BME280;8235;52.198;9.904;2022-09-12T04:31:05;100977.53;;;10.77;89.27
16255;BME280;8235;52.198;9.904;2022-09-12T04:33:33;100976.66;;;10.76;89.29
16255;BME280;8235;52.198;9.904;2022-09-12T04:36:04;100978.28;;;10.79;89.62
16255;BME280;8235;52.198;9.904;2022-09-12T04:38:31;100973.81;;;10.79;89.72
16255;BME280;8235;52.198;9.904;2022-09-12T04:40:57;100975.63;;;10.79;89.77
16255;BME280;8235;52.198;9.904;2022-09-12T04:43:26;100973.81;;;10.79;89.80
16255;BME280;8235;52.198;9.904;2022-09-12T04:45:52;100977.34;;;10.80;89.88
16255;BME280;8235;52.198;9.904;2022-09-12T04:48:19;100972.97;;;10.79;89.84
16255;BME280;8235;52.198;9.904;2022-09-12T04:50:45;100977.34;;;10.80;89.96
16255;BME280;8235;52.198;9.904;2022-09-12T04:53:12;100970.31;;;10.79;89.85
16255;BME280;8235;52.198;9.904;2022-09-12T04:55:38;100979.31;;;10.76;89.67
16255;BME280;8235;52.198;9.904;2022-09-12T04:58:04;100973.44;;;10.71;89.61
16255;BME280;8235;52.198;9.904;2022-09-12T05:00:32;100971.81;;;10.69;89.26
16255;BME280;8235;52.198;9.904;2022-09-12T05:02:59;100968.38;;;10.67;89.59
16255;BME280;8235;52.198;9.904;2022-09-12T05:05:25;100978.25;;;10.65;89.68
16255;BME280;8235;52.198;9.904;2022-09-12T05:07:52;100968.53;;;10.64;89.76
16255;BME280;8235;52.198;9.904;2022-09-12T05:10:18;100978.34;;;10.63;89.90
16255;BME280;8235;52.198;9.904;2022-09-12T05:12:45;100976.53;;;10.64;90.13
16255;BME280;8235;52.198;9.904;2022-09-12T05:15:12;100979.19;;;10.64;90.14
16255;BME280;8235;52.198;9.904;2022-09-12T05:17:40;100985.28;;;10.66;90.48
16255;BME280;8235;52.198;9.904;2022-09-12T05:20:07;100986.16;;;10.66;90.69
16255;BME280;8235;52.198;9.904;2022-09-12T05:22:36;100986.94;;;10.68;90.81
16255;BME280;8235;52.198;9.904;2022-09-12T05:25:04;100987.78;;;10.69;91.09
16255;BME280;8235;52.198;9.904;2022-09-12T05:27:30;100985.03;;;10.70;90.89
16255;BME280;8235;52.198;9.904;2022-09-12T05:29:57;100982.19;;;10.73;91.22
16255;BME280;8235;52.198;9.904;2022-09-12T05:32:23;100987.31;;;10.76;91.98
16255;BME280;8235;52.198;9.904;2022-09-12T05:34:51;100996.00;;;10.80;92.06
16255;BME280;8235;52.198;9.904;2022-09-12T05:37:17;100989.47;;;10.86;92.61
16255;BME280;8235;52.198;9.904;2022-09-12T05:39:44;100990.69;;;10.94;93.38
16255;BME280;8235;52.198;9.904;2022-09-12T05:42:11;100991.13;;;11.02;93.57
16255;BME280;8235;52.198;9.904;2022-09-12T05:44:37;100994.19;;;11.10;93.91
16255;BME280;8235;52.198;9.904;2022-09-12T05:47:04;100989.25;;;11.19;94.32
16255;BME280;8235;52.198;9.904;2022-09-12T05:49:30;100995.00;;;11.27;94.29
16255;BME280;8235;52.198;9.904;2022-09-12T05:51:58;100990.22;;;11.32;94.58
16255;BME280;8235;52.198;9.904;2022-09-12T05:54:25;100984.69;;;11.35;94.15
16255;BME280;8235;52.198;9.904;2022-09-12T05:56:51;100989.84;;;11.38;93.95
16255;BME280;8235;52.198;9.904;2022-09-12T05:59:19;100990.44;;;11.43;94.04
16255;BME280;8235;52.198;9.904;2022-09-12T06:01:46;100990.97;;;11.48;94.51
16255;BME280;8235;52.198;9.904;2022-09-12T06:04:13;100995.09;;;11.54;94.64
16255;BME280;8235;52.198;9.904;2022-09-12T06:06:41;100999.97;;;11.61;94.87
16255;BME280;8235;52.198;9.904;2022-09-12T06:09:11;100998.41;;;11.71;95.61
16255;BME280;8235;52.198;9.904;2022-09-12T06:11:38;100991.59;;;11.81;95.95
16255;BME280;8235;52.198;9.904;2022-09-12T06:14:07;100995.31;;;11.93;95.92
16255;BME280;8235;52.198;9.904;2022-09-12T06:16:34;100992.88;;;12.03;96.06
16255;BME280;8235;52.198;9.904;2022-09-12T06:19:03;100991.38;;;12.13;96.69
16255;BME280;8235;52.198;9.904;2022-09-12T06:21:31;100987.03;;;12.25;97.16
16255;BME280;8235;52.198;9.904;2022-09-12T06:23:59;100978.22;;;12.37;97.31
16255;BME280;8235;52.198;9.904;2022-09-12T06:26:27;100985.34;;;12.50;97.54
16255;BME280;8235;52.198;9.904;2022-09-12T06:28:55;100985.38;;;12.63;98.00
16255;BME280;8235;52.198;9.904;2022-09-12T06:31:23;100981.88;;;12.75;97.64
16255;BME280;8235;52.198;9.904;2022-09-12T06:33:52;100979.44;;;12.85;97.34
16255;BME280;8235;52.198;9.904;2022-09-12T06:36:21;100973.47;;;12.94;96.86
16255;BME280;8235;52.198;9.904;2022-09-12T06:38:52;100975.63;;;13.02;96.78
16255;BME280;8235;52.198;9.904;2022-09-12T06:41:19;100977.66;;;13.11;96.28
16255;BME280;8235;52.198;9.904;2022-09-12T06:43:47;100980.50;;;13.22;96.36
16255;BME280;8235;52.198;9.904;2022-09-12T06:46:14;100987.88;;;13.31;95.78
16255;BME280;8235;52.198;9.904;2022-09-12T06:48:40;100982.00;;;13.39;95.63
16255;BME280;8235;52.198;9.904;2022-09-12T06:51:09;100981.34;;;13.48;94.68
16255;BME280;8235;52.198;9.904;2022-09-12T06:53:37;100987.03;;;13.56;95.14
16255;BME280;8235;52.198;9.904;2022-09-12T06:56:05;100978.34;;;13.65;94.57
16255;BME280;8235;52.198;9.904;2022-09-12T06:58:33;100973.09;;;13.76;94.56
16255;BME280;8235;52.198;9.904;2022-09-12T07:01:02;100980.25;;;13.88;94.37
16255;BME280;8235;52.198;9.904;2022-09-12T07:03:30;100974.94;;;14.00;94.22
16255;BME280;8235;52.198;9.904;2022-09-12T07:05:57;100973.88;;;14.15;94.71
16255;BME280;8235;52.198;9.904;2022-09-12T07:08:27;100976.38;;;14.29;94.55
16255;BME280;8235;52.198;9.904;2022-09-12T07:10:56;100969.06;;;14.44;94.55
16255;BME280;8235;52.198;9.904;2022-09-12T07:13:23;100971.56;;;14.58;94.01
16255;BME280;8235;52.198;9.904;2022-09-12T07:15:50;100968.69;;;14.72;93.93
16255;BME280;8235;52.198;9.904;2022-09-12T07:18:18;100966.66;;;14.87;94.13
16255;BME280;8235;52.198;9.904;2022-09-12T07:20:45;100970.16;;;15.00;93.92
16255;BME280;8235;52.198;9.904;2022-09-12T07:23:11;100974.44;;;15.14;92.90
16255;BME280;8235;52.198;9.904;2022-09-12T07:25:38;100969.81;;;15.27;92.43
16255;BME280;8235;52.198;9.904;2022-09-12T07:28:04;100976.09;;;15.39;91.96
16255;BME280;8235;52.198;9.904;2022-09-12T07:30:30;100976.94;;;15.50;91.25
16255;BME280;8235;52.198;9.904;2022-09-12T07:32:57;100972.34;;;15.63;90.80
16255;BME280;8235;52.198;9.904;2022-09-12T07:35:25;100970.38;;;15.77;90.54
16255;BME280;8235;52.198;9.904;2022-09-12T07:37:51;100968.31;;;15.91;90.44
16255;BME280;8235;52.198;9.904;2022-09-12T07:40:18;100975.38;;;16.04;89.76
16255;BME280;8235;52.198;9.904;2022-09-12T07:42:44;100964.59;;;16.15;89.22
16255;BME280;8235;52.198;9.904;2022-09-12T07:45:12;100969.97;;;16.26;88.39
16255;BME280;8235;52.198;9.904;2022-09-12T07:47:38;100969.94;;;16.37;87.59
16255;BME280;8235;52.198;9.904;2022-09-12T07:50:05;100972.56;;;16.48;86.66
16255;BME280;8235;52.198;9.904;2022-09-12T07:52:33;100973.41;;;16.60;85.92
16255;BME280;8235;52.198;9.904;2022-09-12T07:55:00;100971.41;;;16.73;85.50
16255;BME280;8235;52.198;9.904;2022-09-12T07:57:27;100978.31;;;16.87;85.22
16255;BME280;8235;52.198;9.904;2022-09-12T07:59:53;100971.50;;;17.04;84.94
16255;BME280;8235;52.198;9.904;2022-09-12T08:02:20;100977.44;;;17.18;83.95
16255;BME280;8235;52.198;9.904;2022-09-12T08:04:46;100974.66;;;17.29;83.08
16255;BME280;8235;52.198;9.904;2022-09-12T08:07:14;100969.91;;;17.43;82.72
16255;BME280;8235;52.198;9.904;2022-09-12T08:09:43;100974.94;;;17.57;81.95
16255;BME280;8235;52.198;9.904;2022-09-12T08:12:10;100977.34;;;17.71;81.29
16255;BME280;8235;52.198;9.904;2022-09-12T08:14:36;100972.84;;;17.81;80.67
16255;BME280;8235;52.198;9.904;2022-09-12T08:17:03;100981.66;;;17.93;80.24
16255;BME280;8235;52.198;9.904;2022-09-12T08:19:30;100975.06;;;18.07;80.28
16255;BME280;8235;52.198;9.904;2022-09-12T08:21:57;100975.53;;;18.21;79.95
16255;BME280;8235;52.198;9.904;2022-09-12T08:24:23;100978.66;;;18.36;79.64
16255;BME280;8235;52.198;9.904;2022-09-12T08:26:51;100972.88;;;18.50;78.65
16255;BME280;8235;52.198;9.904;2022-09-12T08:29:18;100976.16;;;18.63;77.88
16255;BME280;8235;52.198;9.904;2022-09-12T08:31:45;100975.91;;;18.76;77.56
16255;BME280;8235;52.198;9.904;2022-09-12T08:34:11;100964.25;;;18.85;76.19
16255;BME280;8235;52.198;9.904;2022-09-12T08:36:38;100964.41;;;18.93;75.53
16255;BME280;8235;52.198;9.904;2022-09-12T08:39:06;100961.69;;;19.03;75.10
16255;BME280;8235;52.198;9.904;2022-09-12T08:41:35;100963.66;;;19.11;73.91
16255;BME280;8235;52.198;9.904;2022-09-12T08:44:17;100962.78;;;19.20;73.46
16255;BME280;8235;52.198;9.904;2022-09-12T08:46:56;100959.78;;;19.32;73.32
16255;BME280;8235;52.198;9.904;2022-09-12T08:49:30;100954.06;;;19.45;72.45
16255;BME280;8235;52.198;9.904;2022-09-12T08:52:02;100953.91;;;19.56;72.07
16255;BME280;8235;52.198;9.904;2022-09-12T08:54:32;100951.75;;;19.69;71.58
16255;BME280;8235;52.198;9.904;2022-09-12T08:57:02;100953.09;;;19.83;70.92
16255;BME280;8235;52.198;9.904;2022-09-12T08:59:34;100950.03;;;19.96;69.97
16255;BME280;8235;52.198;9.904;2022-09-12T09:02:04;100947.97;;;20.07;69.35
16255;BME280;8235;52.198;9.904;2022-09-12T09:04:47;100946.47;;;20.23;68.54
16255;BME280;8235;52.198;9.904;2022-09-12T09:07:34;100946.00;;;20.37;68.14
16255;BME280;8235;52.198;9.904;2022-09-12T09:10:17;100946.91;;;20.45;66.04
16255;BME280;8235;52.198;9.904;2022-09-12T09:12:53;100941.75;;;20.52;65.05
16255;BME280;8235;52.198;9.904;2022-09-12T09:15:40;100947.59;;;20.65;64.53
16255;BME280;8235;52.198;9.904;2022-09-12T09:18:17;100935.38;;;20.79;63.12
16255;BME280;8235;52.198;9.904;2022-09-12T09:20:48;100927.56;;;20.94;61.83
16255;BME280;8235;52.198;9.904;2022-09-12T09:23:21;100931.56;;;21.07;61.05
16255;BME280;8235;52.198;9.904;2022-09-12T09:25:53;100928.16;;;21.23;60.36
16255;BME280;8235;52.198;9.904;2022-09-12T09:28:28;100923.84;;;21.38;58.98
16255;BME280;8235;52.198;9.904;2022-09-12T09:30:57;100929.31;;;21.46;58.98
16255;BME280;8235;52.198;9.904;2022-09-12T09:33:27;100923.91;;;21.55;57.55
16255;BME280;8235;52.198;9.904;2022-09-12T09:36:02;100930.72;;;21.59;56.24
16255;BME280;8235;52.198;9.904;2022-09-12T09:38:38;100928.38;;;21.64;55.98
16255;BME280;8235;52.198;9.904;2022-09-12T09:41:19;100924.38;;;21.76;55.89
16255;BME280;8235;52.198;9.904;2022-09-12T09:43:48;100925.06;;;21.86;54.96
16255;BME280;8235;52.198;9.904;2022-09-12T09:46:16;100916.97;;;21.94;55.21
16255;BME280;8235;52.198;9.904;2022-09-12T09:48:45;100916.72;;;22.05;55.37
16255;BME280;8235;52.198;9.904;2022-09-12T09:51:16;100920.47;;;22.12;55.13
16255;BME280;8235;52.198;9.904;2022-09-12T09:53:46;100907.25;;;22.17;54.47
16255;BME280;8235;52.198;9.904;2022-09-12T09:56:26;100904.88;;;22.23;54.59
16255;BME280;8235;52.198;9.904;2022-09-12T09:58:52;100902.38;;;22.29;54.01
16255;BME280;8235;52.198;9.904;2022-09-12T10:01:20;100907.97;;;22.36;53.61
16255;BME280;8235;52.198;9.904;2022-09-12T10:03:49;100903.91;;;22.40;53.53
16255;BME280;8235;52.198;9.904;2022-09-12T10:06:24;100907.97;;;22.44;53.32
16255;BME280;8235;52.198;9.904;2022-09-12T10:09:04;100898.81;;;22.45;53.15
16255;BME280;8235;52.198;9.904;2022-09-12T10:11:31;100897.63;;;22.47;53.29
16255;BME280;8235;52.198;9.904;2022-09-12T10:13:58;100899.16;;;22.50;52.47
16255;BME280;8235;52.198;9.904;2022-09-12T10:16:28;100893.41;;;22.53;52.43
16255;BME280;8235;52.198;9.904;2022-09-12T10:18:56;100892.88;;;22.58;51.49
16255;BME280;8235;52.198;9.904;2022-09-12T10:21:31;100893.09;;;22.56;50.55
16255;BME280;8235;52.198;9.904;2022-09-12T10:24:09;100888.50;;;22.57;49.83
16255;BME280;8235;52.198;9.904;2022-09-12T10:26:41;100885.59;;;22.58;49.91
16255;BME280;8235;52.198;9.904;2022-09-12T10:29:14;100881.84;;;22.59;49.38
16255;BME280;8235;52.198;9.904;2022-09-12T10:31:46;100883.56;;;22.60;49.12
16255;BME280;8235;52.198;9.904;2022-09-12T10:34:21;100876.78;;;22.64;49.02
16255;BME280;8235;52.198;9.904;2022-09-12T10:36:51;100888.16;;;22.68;48.82
16255;BME280;8235;52.198;9.904;2022-09-12T10:39:19;100874.25;;;22.71;48.92
16255;BME280;8235;52.198;9.904;2022-09-12T10:41:45;100884.44;;;22.77;49.27
16255;BME280;8235;52.198;9.904;2022-09-12T10:44:15;100882.06;;;22.82;48.77
16255;BME280;8235;52.198;9.904;2022-09-12T10:46:43;100876.97;;;22.79;47.66
16255;BME280;8235;52.198;9.904;2022-09-12T10:49:22;100871.72;;;22.77;47.93
16255;BME280;8235;52.198;9.904;2022-09-12T10:51:51;100864.41;;;22.78;47.89
16255;BME280;8235;52.198;9.904;2022-09-12T10:54:20;100868.50;;;22.82;48.31
16255;BME280;8235;52.198;9.904;2022-09-12T10:57:19;100866.28;;;22.85;47.90
16255;BME280;8235;52.198;9.904;2022-09-12T11:00:08;100869.50;;;22.89;47.69
16255;BME280;8235;52.198;9.904;2022-09-12T11:03:01;100864.38;;;22.94;47.91
16255;BME280;8235;52.198;9.904;2022-09-12T11:05:42;100864.06;;;22.97;47.50
16255;BME280;8235;52.198;9.904;2022-09-12T11:08:23;100859.63;;;23.04;48.39
16255;BME280;8235;52.198;9.904;2022-09-12T11:10:58;100856.53;;;23.15;48.76
16255;BME280;8235;52.198;9.904;2022-09-12T11:13:45;100853.31;;;23.20;48.75
16255;BME280;8235;52.198;9.904;2022-09-12T11:16:21;100853.47;;;23.27;48.59
16255;BME280;8235;52.198;9.904;2022-09-12T11:19:11;100857.22;;;23.26;47.82
16255;BME280;8235;52.198;9.904;2022-09-12T11:21:50;100858.41;;;23.23;47.24
16255;BME280;8235;52.198;9.904;2022-09-12T11:24:28;100848.22;;;23.25;46.94
16255;BME280;8235;52.198;9.904;2022-09-12T11:27:10;100848.03;;;23.27;46.10
16255;BME280;8235;52.198;9.904;2022-09-12T11:29:49;100845.31;;;23.27;45.64
16255;BME280;8235;52.198;9.904;2022-09-12T11:32:35;100848.50;;;23.30;46.61
16255;BME280;8235;52.198;9.904;2022-09-12T11:35:17;100843.94;;;23.31;45.50
16255;BME280;8235;52.198;9.904;2022-09-12T11:37:58;100841.38;;;23.29;45.85
16255;BME280;8235;52.198;9.904;2022-09-12T11:40:34;100841.88;;;23.33;45.04
16255;BME280;8235;52.198;9.904;2022-09-12T11:43:09;100828.47;;;23.31;44.57
16255;BME280;8235;52.198;9.904;2022-09-12T11:45:40;100839.00;;;23.34;44.76
16255;BME280;8235;52.198;9.904;2022-09-12T11:48:14;100830.31;;;23.39;44.84
16255;BME280;8235;52.198;9.904;2022-09-12T11:50:44;100825.91;;;23.46;44.51
16255;BME280;8235;52.198;9.904;2022-09-12T11:53:15;100832.19;;;23.46;44.21
16255;BME280;8235;52.198;9.904;2022-09-12T11:55:51;100835.53;;;23.48;43.94
16255;BME280;8235;52.198;9.904;2022-09-12T11:58:21;100829.78;;;23.51;44.04
16255;BME280;8235;52.198;9.904;2022-09-12T12:00:51;100842.00;;;23.56;43.62
16255;BME280;8235;52.198;9.904;2022-09-12T12:03:26;100825.84;;;23.62;43.66
16255;BME280;8235;52.198;9.904;2022-09-12T12:06:00;100813.75;;;23.65;43.19
16255;BME280;8235;52.198;9.904;2022-09-12T12:08:29;100814.25;;;23.68;43.55
16255;BME280;8235;52.198;9.904;2022-09-12T12:10:58;100819.16;;;23.73;43.29
16255;BME280;8235;52.198;9.904;2022-09-12T12:13:29;100812.34;;;23.77;43.67
16255;BME280;8235;52.198;9.904;2022-09-12T12:16:00;100816.88;;;23.84;43.82
16255;BME280;8235;52.198;9.904;2022-09-12T12:18:29;100816.34;;;23.89;43.26
16255;BME280;8235;52.198;9.904;2022-09-12T12:21:19;100813.94;;;23.94;43.42
16255;BME280;8235;52.198;9.904;2022-09-12T12:24:03;100816.47;;;23.96;43.19
16255;BME280;8235;52.198;9.904;2022-09-12T12:26:53;100817.31;;;23.96;42.60
16255;BME280;8235;52.198;9.904;2022-09-12T12:29:39;100812.06;;;23.95;42.91
16255;BME280;8235;52.198;9.904;2022-09-12T12:32:25;100811.56;;;23.91;42.52
16255;BME280;8235;52.198;9.904;2022-09-12T12:38:03;100809.19;;;23.88;42.40
16255;BME280;8235;52.198;9.904;2022-09-12T12:40:31;100816.16;;;23.91;42.73
16255;BME280;8235;52.198;9.904;2022-09-12T12:43:02;100798.13;;;23.89;42.63
16255;BME280;8235;52.198;9.904;2022-09-12T12:48:51;100798.31;;;23.88;41.77
16255;BME280;8235;52.198;9.904;2022-09-12T12:54:51;100794.75;;;23.87;42.24
16255;BME280;8235;52.198;9.904;2022-09-12T12:57:23;100793.72;;;23.88;42.04
16255;BME280;8235;52.198;9.904;2022-09-12T12:59:54;100788.28;;;23.88;42.26
16255;BME280;8235;52.198;9.904;2022-09-12T13:02:25;100782.66;;;23.90;41.87
16255;BME280;8235;52.198;9.904;2022-09-12T13:04:54;100783.03;;;23.87;42.10
16255;BME280;8235;52.198;9.904;2022-09-12T13:07:27;100777.59;;;23.87;41.90
16255;BME280;8235;52.198;9.904;2022-09-12T13:09:57;100780.31;;;23.87;41.76
16255;BME280;8235;52.198;9.904;2022-09-12T13:12:26;100776.56;;;23.88;41.59
16255;BME280;8235;52.198;9.904;2022-09-12T13:14:55;100776.19;;;23.91;41.59
16255;BME280;8235;52.198;9.904;2022-09-12T13:17:30;100767.00;;;23.92;41.69
16255;BME280;8235;52.198;9.904;2022-09-12T13:20:05;100764.28;;;23.92;41.37
16255;BME280;8235;52.198;9.904;2022-09-12T13:22:38;100756.31;;;23.91;41.01
16255;BME280;8235;52.198;9.904;2022-09-12T13:25:27;100756.81;;;23.94;41.77
16255;BME280;8235;52.198;9.904;2022-09-12T13:28:03;100757.47;;;23.96;41.62
16255;BME280;8235;52.198;9.904;2022-09-12T13:30:32;100749.66;;;23.93;41.12
16255;BME280;8235;52.198;9.904;2022-09-12T13:33:07;100756.13;;;23.92;41.39